createdAt,value
2017-08-20T00:00:04.533Z,18.44
2017-08-20T00:01:13.541Z,18.39
2017-08-20T00:02:22.537Z,18.47
2017-08-20T00:03:31.487Z,18.37
2017-08-20T00:04:40.627Z,18.39
2017-08-20T00:05:49.617Z,18.42
2017-08-20T00:06:58.750Z,18.42
2017-08-20T00:08:07.866Z,18.47
2017-08-20T00:09:17.312Z,18.36
2017-08-20T00:10:26.530Z,18.42
2017-08-20T00:11:35.637Z,18.47
2017-08-20T00:12:44.592Z,18.35
2017-08-20T00:13:53.610Z,18.33
2017-08-20T00:15:02.567Z,18.35
2017-08-20T00:16:11.635Z,18.37
2017-08-20T00:17:20.686Z,18.23
2017-08-20T00:18:29.780Z,18.26
2017-08-20T00:19:38.785Z,18.27
2017-08-20T00:20:47.758Z,18.29
2017-08-20T00:21:56.876Z,18.32
2017-08-20T00:23:05.833Z,18.26
2017-08-20T00:24:14.784Z,18.3
2017-08-20T00:25:23.733Z,18.25
2017-08-20T00:26:32.835Z,18.14
2017-08-20T00:27:41.785Z,18.2
2017-08-20T00:28:51.193Z,18.15
2017-08-20T00:30:00.143Z,18.21
2017-08-20T00:31:09.161Z,18.2
2017-08-20T00:32:18.108Z,18.18
2017-08-20T00:33:27.174Z,18.2
2017-08-20T00:34:36.150Z,18.14
2017-08-20T00:35:45.530Z,18.21
2017-08-20T00:36:54.604Z,18.12
2017-08-20T00:38:03.593Z,18.1
2017-08-20T00:39:12.818Z,18.11
2017-08-20T00:40:21.771Z,18.12
2017-08-20T00:41:30.819Z,18.12
2017-08-20T00:42:39.773Z,18.2
2017-08-20T00:43:48.909Z,18.11
2017-08-20T00:44:57.857Z,18.14
2017-08-20T00:46:06.973Z,18.17
2017-08-20T00:47:15.928Z,18.08
2017-08-20T00:48:24.980Z,18.12
2017-08-20T00:49:33.933Z,18.11
2017-08-20T00:50:43.037Z,18.05
2017-08-20T00:51:51.996Z,18.05
2017-08-20T00:53:01.112Z,18.05
2017-08-20T00:54:10.111Z,18.02
2017-08-20T00:55:19.073Z,18.08
2017-08-20T00:56:28.505Z,18.02
2017-08-20T00:57:37.479Z,18.07
2017-08-20T00:58:46.524Z,18.05
2017-08-20T00:59:55.470Z,17.99
2017-08-20T01:01:04.569Z,18.03
2017-08-20T01:02:13.532Z,18.03
2017-08-20T01:03:22.961Z,18.07
2017-08-20T01:04:31.933Z,17.99
2017-08-20T01:05:41.010Z,18.03
2017-08-20T01:06:49.957Z,18.03
2017-08-20T01:07:59.127Z,18.03
2017-08-20T01:09:08.075Z,17.95
2017-08-20T01:10:17.111Z,17.96
2017-08-20T01:11:26.079Z,17.96
2017-08-20T01:12:35.086Z,17.97
2017-08-20T01:13:44.175Z,17.99
2017-08-20T01:14:53.195Z,17.97
2017-08-20T01:16:02.365Z,17.97
2017-08-20T01:17:11.313Z,17.99
2017-08-20T01:18:20.417Z,18
2017-08-20T01:19:29.363Z,17.92
2017-08-20T01:20:38.559Z,17.9
2017-08-20T01:21:47.551Z,17.89
2017-08-20T01:22:56.611Z,17.95
2017-08-20T01:24:05.557Z,17.82
2017-08-20T01:25:14.635Z,17.82
2017-08-20T01:26:23.591Z,17.87
2017-08-20T01:27:32.779Z,17.87
2017-08-20T01:28:41.762Z,17.87
2017-08-20T01:29:50.824Z,17.92
2017-08-20T01:30:59.884Z,17.87
2017-08-20T01:32:08.836Z,17.86
2017-08-20T01:33:17.825Z,17.82
2017-08-20T01:34:27.099Z,17.71
2017-08-20T01:35:36.102Z,17.77
2017-08-20T01:36:45.052Z,17.78
2017-08-20T01:37:54.199Z,17.74
2017-08-20T01:39:03.218Z,17.81
2017-08-20T01:40:12.349Z,17.77
2017-08-20T01:41:21.302Z,17.74
2017-08-20T01:42:30.294Z,17.71
2017-08-20T01:43:39.242Z,17.74
2017-08-20T01:44:48.496Z,17.74
2017-08-20T01:45:57.550Z,17.77
2017-08-20T01:47:06.552Z,17.64
2017-08-20T01:48:15.682Z,17.71
2017-08-20T01:49:24.952Z,17.7
2017-08-20T01:50:34.013Z,17.7
2017-08-20T01:51:43.004Z,17.71
2017-08-20T01:52:52.059Z,17.64
2017-08-20T01:54:01.010Z,17.71
2017-08-20T01:55:10.078Z,17.64
2017-08-20T01:56:19.028Z,17.68
2017-08-20T01:57:28.126Z,17.62
2017-08-20T01:58:37.077Z,17.71
2017-08-20T01:59:46.228Z,17.64
2017-08-20T02:00:55.287Z,17.68
2017-08-20T02:02:04.412Z,17.58
2017-08-20T02:03:13.426Z,17.62
2017-08-20T02:04:22.381Z,17.62
2017-08-20T02:05:31.337Z,17.62
2017-08-20T02:06:40.294Z,17.56
2017-08-20T02:07:49.245Z,17.56
2017-08-20T02:08:58.195Z,17.58
2017-08-20T02:10:07.149Z,17.58
2017-08-20T02:11:16.425Z,17.54
2017-08-20T02:12:25.703Z,17.52
2017-08-20T02:13:34.653Z,17.54
2017-08-20T02:14:43.601Z,17.48
2017-08-20T02:15:52.544Z,17.48
2017-08-20T02:17:01.580Z,17.56
2017-08-20T02:18:10.533Z,17.64
2017-08-20T02:19:19.482Z,17.58
2017-08-20T02:20:28.440Z,17.44
2017-08-20T02:21:37.389Z,17.51
2017-08-20T02:22:46.340Z,17.46
2017-08-20T02:23:55.285Z,17.49
2017-08-20T02:25:04.241Z,17.49
2017-08-20T02:26:13.194Z,17.4
2017-08-20T02:27:22.149Z,17.41
2017-08-20T02:28:31.109Z,17.4
2017-08-20T02:29:40.058Z,17.41
2017-08-20T02:30:49.658Z,17.44
2017-08-20T02:31:58.604Z,17.46
2017-08-20T02:33:07.554Z,17.41
2017-08-20T02:34:16.508Z,17.37
2017-08-20T02:35:25.458Z,17.28
2017-08-20T02:36:34.415Z,17.34
2017-08-20T02:37:43.695Z,17.26
2017-08-20T02:38:52.653Z,17.3
2017-08-20T02:40:01.605Z,17.25
2017-08-20T02:41:10.562Z,17.26
2017-08-20T02:42:19.533Z,17.21
2017-08-20T02:43:28.484Z,17.26
2017-08-20T02:44:37.441Z,17.22
2017-08-20T02:45:46.389Z,17.21
2017-08-20T02:46:55.672Z,17.19
2017-08-20T02:48:04.951Z,17.22
2017-08-20T02:49:13.903Z,17.19
2017-08-20T02:50:22.856Z,17.22
2017-08-20T02:51:31.807Z,17.22
2017-08-20T02:52:40.755Z,17.22
2017-08-20T02:53:49.709Z,17.19
2017-08-20T02:54:58.659Z,17.19
2017-08-20T02:56:07.605Z,17.21
2017-08-20T02:57:16.553Z,17.19
2017-08-20T02:58:25.507Z,17.26
2017-08-20T02:59:34.473Z,17.15
2017-08-20T03:00:43.426Z,17.25
2017-08-20T03:01:52.387Z,17.25
2017-08-20T03:03:01.333Z,17.15
2017-08-20T03:04:10.615Z,17.26
2017-08-20T03:05:19.565Z,17.22
2017-08-20T03:06:28.516Z,17.14
2017-08-20T03:07:37.477Z,17.15
2017-08-20T03:08:46.430Z,17.19
2017-08-20T03:09:55.386Z,17.11
2017-08-20T03:11:04.340Z,17.12
2017-08-20T03:12:13.293Z,17.16
2017-08-20T03:13:22.248Z,17.15
2017-08-20T03:14:31.200Z,17.18
2017-08-20T03:15:40.148Z,17.14
2017-08-20T03:16:49.100Z,17.11
2017-08-20T03:17:58.050Z,17.11
2017-08-20T03:19:07.006Z,17.07
2017-08-20T03:20:15.957Z,16.93
2017-08-20T03:21:24.913Z,17.11
2017-08-20T03:22:33.866Z,16.94
2017-08-20T03:23:42.814Z,17.04
2017-08-20T03:24:51.764Z,16.97
2017-08-20T03:26:00.722Z,17.11
2017-08-20T03:27:09.670Z,17.03
2017-08-20T03:28:18.947Z,16.96
2017-08-20T03:29:27.900Z,17.04
2017-08-20T03:30:36.849Z,16.97
2017-08-20T03:31:45.805Z,16.98
2017-08-20T03:32:54.761Z,16.97
2017-08-20T03:34:03.732Z,16.94
2017-08-20T03:35:12.688Z,17.07
2017-08-20T03:36:21.634Z,16.97
2017-08-20T03:37:30.587Z,17
2017-08-20T03:38:39.542Z,16.91
2017-08-20T03:39:48.493Z,16.89
2017-08-20T03:40:57.439Z,16.97
2017-08-20T03:42:06.395Z,16.94
2017-08-20T03:43:15.341Z,16.85
2017-08-20T03:44:24.288Z,16.86
2017-08-20T03:45:33.238Z,16.93
2017-08-20T03:46:42.187Z,16.86
2017-08-20T03:47:51.462Z,16.86
2017-08-20T03:49:00.409Z,16.88
2017-08-20T03:50:09.358Z,16.89
2017-08-20T03:51:18.307Z,16.94
2017-08-20T03:52:27.264Z,16.91
2017-08-20T03:53:36.220Z,16.88
2017-08-20T03:54:45.167Z,16.91
2017-08-20T03:55:54.434Z,16.89
2017-08-20T03:57:03.380Z,16.86
2017-08-20T03:58:12.323Z,16.85
2017-08-20T03:59:21.270Z,16.85
2017-08-20T04:00:30.217Z,16.86
2017-08-20T04:01:39.163Z,16.97
2017-08-20T04:02:48.114Z,16.88
2017-08-20T04:03:57.062Z,16.86
2017-08-20T04:05:06.011Z,16.89
2017-08-20T04:06:15.284Z,16.94
2017-08-20T04:07:24.238Z,16.88
2017-08-20T04:08:33.188Z,16.89
2017-08-20T04:09:42.136Z,16.88
2017-08-20T04:10:51.092Z,16.88
2017-08-20T04:12:00.040Z,16.89
2017-08-20T04:13:09.004Z,16.86
2017-08-20T04:14:17.959Z,16.83
2017-08-20T04:15:26.910Z,16.85
2017-08-20T04:16:35.854Z,16.86
2017-08-20T04:17:44.803Z,16.88
2017-08-20T04:18:53.748Z,16.86
2017-08-20T04:20:02.698Z,16.89
2017-08-20T04:21:11.647Z,16.89
2017-08-20T04:22:20.602Z,16.86
2017-08-20T04:23:29.554Z,16.83
2017-08-20T04:24:38.499Z,16.91
2017-08-20T04:25:47.448Z,16.86
2017-08-20T04:26:56.399Z,16.88
2017-08-20T04:28:05.372Z,16.86
2017-08-20T04:29:14.654Z,16.89
2017-08-20T04:30:23.624Z,16.89
2017-08-20T04:31:32.576Z,16.86
2017-08-20T04:32:41.526Z,16.89
2017-08-20T04:33:50.474Z,16.86
2017-08-20T04:34:59.419Z,16.91
2017-08-20T04:36:08.369Z,16.85
2017-08-20T04:37:17.321Z,16.79
2017-08-20T04:38:26.270Z,16.79
2017-08-20T04:39:35.542Z,16.85
2017-08-20T04:40:44.484Z,16.79
2017-08-20T04:41:53.431Z,16.78
2017-08-20T04:43:02.375Z,16.82
2017-08-20T04:44:11.330Z,16.91
2017-08-20T04:45:20.278Z,16.88
2017-08-20T04:46:29.224Z,16.83
2017-08-20T04:47:38.171Z,16.89
2017-08-20T04:48:47.116Z,16.86
2017-08-20T04:49:56.065Z,16.88
2017-08-20T04:51:05.027Z,16.88
2017-08-20T04:52:13.983Z,16.86
2017-08-20T04:53:22.933Z,16.89
2017-08-20T04:54:31.883Z,16.93
2017-08-20T04:55:40.837Z,16.83
2017-08-20T04:56:49.792Z,16.89
2017-08-20T04:57:58.742Z,16.86
2017-08-20T04:59:07.692Z,16.93
2017-08-20T05:00:16.655Z,16.97
2017-08-20T05:01:25.951Z,16.89
2017-08-20T05:02:34.907Z,16.94
2017-08-20T05:03:43.861Z,16.89
2017-08-20T05:04:52.814Z,16.83
2017-08-20T05:06:01.761Z,16.89
2017-08-20T05:07:10.716Z,16.83
2017-08-20T05:08:19.666Z,16.88
2017-08-20T05:09:28.623Z,16.86
2017-08-20T05:10:37.579Z,16.98
2017-08-20T05:11:46.530Z,16.98
2017-08-20T05:12:55.485Z,16.93
2017-08-20T05:14:04.434Z,16.89
2017-08-20T05:15:13.377Z,16.93
2017-08-20T05:16:22.333Z,16.86
2017-08-20T05:17:31.281Z,16.96
2017-08-20T05:18:40.237Z,16.86
2017-08-20T05:19:49.193Z,16.86
2017-08-20T05:20:58.140Z,16.96
2017-08-20T05:22:07.092Z,16.88
2017-08-20T05:23:16.044Z,16.93
2017-08-20T05:24:24.994Z,16.94
2017-08-20T05:25:34.266Z,16.91
2017-08-20T05:26:43.218Z,16.88
2017-08-20T05:27:52.163Z,16.91
2017-08-20T05:29:01.114Z,16.94
2017-08-20T05:30:10.063Z,16.96
2017-08-20T05:31:19.026Z,16.94
2017-08-20T05:32:27.973Z,16.98
2017-08-20T05:33:36.916Z,16.91
2017-08-20T05:34:45.862Z,17.04
2017-08-20T05:35:54.815Z,17.07
2017-08-20T05:37:03.765Z,17.07
2017-08-20T05:38:12.716Z,17.08
2017-08-20T05:39:21.670Z,17.04
2017-08-20T05:40:30.618Z,17.14
2017-08-20T05:41:39.889Z,17.08
2017-08-20T05:42:48.842Z,17.12
2017-08-20T05:43:57.787Z,17.14
2017-08-20T05:45:06.735Z,17.14
2017-08-20T05:46:15.685Z,17.15
2017-08-20T05:47:24.642Z,17.12
2017-08-20T05:48:33.589Z,17.11
2017-08-20T05:49:42.535Z,17.12
2017-08-20T05:50:51.483Z,17.12
2017-08-20T05:52:00.440Z,17.21
2017-08-20T05:53:09.393Z,17.23
2017-08-20T05:54:18.340Z,17.36
2017-08-20T05:55:27.301Z,17.19
2017-08-20T05:56:36.270Z,17.23
2017-08-20T05:57:45.219Z,17.3
2017-08-20T05:58:54.170Z,17.23
2017-08-20T06:00:03.120Z,17.23
2017-08-20T06:01:12.070Z,17.3
2017-08-20T06:02:21.027Z,17.36
2017-08-20T06:03:29.972Z,17.41
2017-08-20T06:04:38.920Z,17.38
2017-08-20T06:05:47.898Z,17.38
2017-08-20T06:06:57.168Z,17.43
2017-08-20T06:08:06.117Z,17.37
2017-08-20T06:09:15.063Z,17.4
2017-08-20T06:10:24.012Z,17.49
2017-08-20T06:11:32.969Z,17.52
2017-08-20T06:12:41.918Z,17.54
2017-08-20T06:13:50.881Z,17.56
2017-08-20T06:14:59.859Z,17.59
2017-08-20T06:16:09.165Z,17.63
2017-08-20T06:17:18.112Z,17.63
2017-08-20T06:18:27.060Z,17.7
2017-08-20T06:19:36.014Z,17.72
2017-08-20T06:20:44.966Z,17.66
2017-08-20T06:21:53.914Z,17.7
2017-08-20T06:23:02.875Z,17.77
2017-08-20T06:24:11.822Z,17.71
2017-08-20T06:25:20.776Z,17.64
2017-08-20T06:26:29.720Z,17.7
2017-08-20T06:27:38.992Z,17.7
2017-08-20T06:28:47.939Z,17.59
2017-08-20T06:29:56.894Z,17.59
2017-08-20T06:31:05.847Z,17.62
2017-08-20T06:32:14.799Z,17.66
2017-08-20T06:33:23.765Z,17.77
2017-08-20T06:34:32.713Z,17.77
2017-08-20T06:35:41.659Z,17.75
2017-08-20T06:36:50.608Z,17.84
2017-08-20T06:37:59.552Z,17.86
2017-08-20T06:39:08.502Z,17.9
2017-08-20T06:40:17.451Z,17.9
2017-08-20T06:41:26.403Z,17.92
2017-08-20T06:42:35.370Z,17.96
2017-08-20T06:43:44.323Z,17.99
2017-08-20T06:44:53.273Z,17.92
2017-08-20T06:46:02.229Z,17.97
2017-08-20T06:47:11.176Z,18.03
2017-08-20T06:48:20.134Z,18
2017-08-20T06:49:29.407Z,17.96
2017-08-20T06:50:38.352Z,18.03
2017-08-20T06:51:47.302Z,17.99
2017-08-20T06:52:56.249Z,18.12
2017-08-20T06:54:05.500Z,18.03
2017-08-20T06:55:14.450Z,18.11
2017-08-20T06:56:23.621Z,18.12
2017-08-20T06:57:32.567Z,18.11
2017-08-20T06:58:41.514Z,18.12
2017-08-20T06:59:50.466Z,18.18
2017-08-20T07:00:59.422Z,18.3
2017-08-20T07:02:08.382Z,18.3
2017-08-20T07:03:17.660Z,18.29
2017-08-20T07:04:26.612Z,18.36
2017-08-20T07:05:35.563Z,18.32
2017-08-20T07:06:44.515Z,18.45
2017-08-20T07:07:53.784Z,18.37
2017-08-20T07:09:02.734Z,18.32
2017-08-20T07:10:11.684Z,18.36
2017-08-20T07:11:20.655Z,18.33
2017-08-20T07:12:29.609Z,18.41
2017-08-20T07:13:38.603Z,18.45
2017-08-20T07:14:47.564Z,18.37
2017-08-20T07:15:56.511Z,18.36
2017-08-20T07:17:05.535Z,18.41
2017-08-20T07:18:14.483Z,18.41
2017-08-20T07:19:23.443Z,18.5
2017-08-20T07:20:32.720Z,18.6
2017-08-20T07:21:41.676Z,18.57
2017-08-20T07:22:50.629Z,18.63
2017-08-20T07:23:59.582Z,18.55
2017-08-20T07:25:08.862Z,18.63
2017-08-20T07:26:17.810Z,18.72
2017-08-20T07:27:26.777Z,18.75
2017-08-20T07:28:36.696Z,18.72
2017-08-20T07:29:45.701Z,18.72
2017-08-20T07:30:54.773Z,18.78
2017-08-20T07:32:03.764Z,18.75
2017-08-20T07:33:12.789Z,18.78
2017-08-20T07:34:21.757Z,18.75
2017-08-20T07:35:30.878Z,18.84
2017-08-20T07:36:39.829Z,18.85
2017-08-20T07:37:48.854Z,18.85
2017-08-20T07:38:58.169Z,18.76
2017-08-20T07:40:07.121Z,18.82
2017-08-20T07:41:16.076Z,18.84
2017-08-20T07:42:25.027Z,18.76
2017-08-20T07:43:33.984Z,18.81
2017-08-20T07:44:42.933Z,18.85
2017-08-20T07:45:51.885Z,18.92
2017-08-20T07:47:00.843Z,18.95
2017-08-20T07:48:09.802Z,18.9
2017-08-20T07:49:18.840Z,18.98
2017-08-20T07:50:27.789Z,18.99
2017-08-20T07:51:36.801Z,19.04
2017-08-20T07:52:45.759Z,18.98
2017-08-20T07:53:54.738Z,19.06
2017-08-20T07:55:03.692Z,19.11
2017-08-20T07:56:13.063Z,19.14
2017-08-20T07:57:22.041Z,19.1
2017-08-20T07:58:31.125Z,19.14
2017-08-20T07:59:40.109Z,19.21
2017-08-20T08:00:49.059Z,19.22
2017-08-20T08:01:58.007Z,19.25
2017-08-20T08:03:06.958Z,19.22
2017-08-20T08:04:15.912Z,19.28
2017-08-20T08:05:25.194Z,19.28
2017-08-20T08:06:34.305Z,19.28
2017-08-20T08:07:43.263Z,19.28
2017-08-20T08:08:52.215Z,19.39
2017-08-20T08:10:01.166Z,19.36
2017-08-20T08:11:10.243Z,19.41
2017-08-20T08:12:19.194Z,19.39
2017-08-20T08:13:28.167Z,19.4
2017-08-20T08:14:37.141Z,19.46
2017-08-20T08:15:46.435Z,19.48
2017-08-20T08:16:55.414Z,19.51
2017-08-20T08:18:04.399Z,19.56
2017-08-20T08:19:13.699Z,19.63
2017-08-20T08:20:22.675Z,19.69
2017-08-20T08:21:31.653Z,19.74
2017-08-20T08:22:40.628Z,19.76
2017-08-20T08:23:49.598Z,19.76
2017-08-20T08:24:58.568Z,19.76
2017-08-20T08:26:07.534Z,19.74
2017-08-20T08:27:17.215Z,19.84
2017-08-20T08:28:26.164Z,19.88
2017-08-20T08:29:35.120Z,19.86
2017-08-20T08:30:44.139Z,19.86
2017-08-20T08:31:53.408Z,19.77
2017-08-20T08:33:02.363Z,19.77
2017-08-20T08:34:11.320Z,19.73
2017-08-20T08:35:20.278Z,19.73
2017-08-20T08:36:29.231Z,19.77
2017-08-20T08:37:38.198Z,19.73
2017-08-20T08:38:47.171Z,19.77
2017-08-20T08:39:56.149Z,19.83
2017-08-20T08:41:05.132Z,19.77
2017-08-20T08:42:14.100Z,19.78
2017-08-20T08:43:23.075Z,19.78
2017-08-20T08:44:32.061Z,19.88
2017-08-20T08:45:41.033Z,19.91
2017-08-20T08:46:50.010Z,19.91
2017-08-20T08:47:58.992Z,19.88
2017-08-20T08:49:07.969Z,19.91
2017-08-20T08:50:16.946Z,19.87
2017-08-20T08:51:25.922Z,19.99
2017-08-20T08:52:34.896Z,19.99
2017-08-20T08:53:43.869Z,20.01
2017-08-20T08:54:52.847Z,20.02
2017-08-20T08:56:01.825Z,20.01
2017-08-20T08:57:10.793Z,20.02
2017-08-20T08:58:19.769Z,19.98
2017-08-20T08:59:28.743Z,20.16
2017-08-20T09:00:37.703Z,20.13
2017-08-20T09:01:46.703Z,20.21
2017-08-20T09:02:55.718Z,20.29
2017-08-20T09:04:04.794Z,20.29
2017-08-20T09:05:13.806Z,20.26
2017-08-20T09:06:22.755Z,20.38
2017-08-20T09:07:31.703Z,20.41
2017-08-20T09:08:40.651Z,20.47
2017-08-20T09:09:49.602Z,20.5
2017-08-20T09:10:58.550Z,20.51
2017-08-20T09:12:07.497Z,20.47
2017-08-20T09:13:16.462Z,20.67
2017-08-20T09:14:25.757Z,20.59
2017-08-20T09:15:35.083Z,20.48
2017-08-20T09:16:44.112Z,20.55
2017-08-20T09:17:53.070Z,20.52
2017-08-20T09:19:02.127Z,20.57
2017-08-20T09:20:11.136Z,20.59
2017-08-20T09:21:20.085Z,20.58
2017-08-20T09:22:29.035Z,20.61
2017-08-20T09:23:38.348Z,20.62
2017-08-20T09:24:47.376Z,20.66
2017-08-20T09:25:56.546Z,20.61
2017-08-20T09:27:05.501Z,20.51
2017-08-20T09:28:14.567Z,20.5
2017-08-20T09:29:23.555Z,20.59
2017-08-20T09:30:32.598Z,20.61
2017-08-20T09:31:41.619Z,20.59
2017-08-20T09:32:50.582Z,20.67
2017-08-20T09:33:59.535Z,20.51
2017-08-20T09:35:08.491Z,20.51
2017-08-20T09:36:17.441Z,20.54
2017-08-20T09:37:26.725Z,20.5
2017-08-20T09:38:35.675Z,20.35
2017-08-20T09:39:44.630Z,20.28
2017-08-20T09:40:53.581Z,20.18
2017-08-20T09:42:02.537Z,20.29
2017-08-20T09:43:11.505Z,20.23
2017-08-20T09:44:20.897Z,20.31
2017-08-20T09:45:29.922Z,20.38
2017-08-20T09:46:38.928Z,20.42
2017-08-20T09:47:47.971Z,20.5
2017-08-20T09:48:57.008Z,20.52
2017-08-20T09:50:05.967Z,20.5
2017-08-20T09:51:14.959Z,20.57
2017-08-20T09:52:23.911Z,20.48
2017-08-20T09:53:32.862Z,20.48
2017-08-20T09:54:41.815Z,20.55
2017-08-20T09:55:50.782Z,20.54
2017-08-20T09:56:59.748Z,20.57
2017-08-20T09:58:08.700Z,20.55
2017-08-20T09:59:17.653Z,20.7
2017-08-20T10:00:26.610Z,20.74
2017-08-20T10:01:35.922Z,20.84
2017-08-20T10:02:44.875Z,20.89
2017-08-20T10:03:53.827Z,20.88
2017-08-20T10:05:02.779Z,20.98
2017-08-20T10:06:11.792Z,21.03
2017-08-20T10:07:20.753Z,21.06
2017-08-20T10:08:29.700Z,21.12
2017-08-20T10:09:38.971Z,21.14
2017-08-20T10:10:47.933Z,21.12
2017-08-20T10:11:56.897Z,21.17
2017-08-20T10:13:05.875Z,21.1
2017-08-20T10:14:14.830Z,21.16
2017-08-20T10:15:23.786Z,21.21
2017-08-20T10:16:32.742Z,21.21
2017-08-20T10:17:42.023Z,21.25
2017-08-20T10:18:50.987Z,21.35
2017-08-20T10:19:59.960Z,21.44
2017-08-20T10:21:08.914Z,21.46
2017-08-20T10:22:17.866Z,21.56
2017-08-20T10:23:26.840Z,21.54
2017-08-20T10:24:35.804Z,21.59
2017-08-20T10:25:44.767Z,21.61
2017-08-20T10:26:53.730Z,21.58
2017-08-20T10:28:02.693Z,21.61
2017-08-20T10:29:11.659Z,21.61
2017-08-20T10:30:20.634Z,21.54
2017-08-20T10:31:29.609Z,21.49
2017-08-20T10:32:38.578Z,21.4
2017-08-20T10:33:47.532Z,21.38
2017-08-20T10:34:56.492Z,21.32
2017-08-20T10:36:05.451Z,21.32
2017-08-20T10:37:14.415Z,21.19
2017-08-20T10:38:23.404Z,21.13
2017-08-20T10:39:32.367Z,21.04
2017-08-20T10:40:41.388Z,20.98
2017-08-20T10:41:50.345Z,20.95
2017-08-20T10:42:59.632Z,20.91
2017-08-20T10:44:08.600Z,20.8
2017-08-20T10:45:17.673Z,20.69
2017-08-20T10:46:26.641Z,20.52
2017-08-20T10:47:35.930Z,20.21
2017-08-20T10:48:44.891Z,20.01
2017-08-20T10:49:53.869Z,19.86
2017-08-20T10:51:02.844Z,19.69
2017-08-20T10:52:11.807Z,19.56
2017-08-20T10:53:21.082Z,19.4
2017-08-20T10:54:30.051Z,19.29
2017-08-20T10:55:39.017Z,19.06
2017-08-20T10:56:47.981Z,18.98
2017-08-20T10:57:56.945Z,18.85
2017-08-20T10:59:06.016Z,18.88
2017-08-20T11:00:14.973Z,18.84
2017-08-20T11:01:23.926Z,18.8
2017-08-20T11:02:32.882Z,18.81
2017-08-20T11:03:42.001Z,18.67
2017-08-20T11:04:51.283Z,18.69
2017-08-20T11:06:00.244Z,18.67
2017-08-20T11:07:09.234Z,18.6
2017-08-20T11:08:18.201Z,18.63
2017-08-20T11:09:27.163Z,18.65
2017-08-20T11:10:36.115Z,18.67
2017-08-20T11:11:45.085Z,18.8
2017-08-20T11:12:54.034Z,18.92
2017-08-20T11:14:02.994Z,18.99
2017-08-20T11:15:12.053Z,19.14
2017-08-20T11:16:21.009Z,19.16
2017-08-20T11:17:29.962Z,19.29
2017-08-20T11:18:38.912Z,19.23
2017-08-20T11:19:48.199Z,19.28
2017-08-20T11:20:57.160Z,19.28
2017-08-20T11:22:06.118Z,19.4
2017-08-20T11:23:15.079Z,19.36
2017-08-20T11:24:24.037Z,19.4
2017-08-20T11:25:32.995Z,19.4
2017-08-20T11:26:41.966Z,19.51
2017-08-20T11:27:50.932Z,19.51
2017-08-20T11:28:59.892Z,19.59
2017-08-20T11:30:08.847Z,19.61
2017-08-20T11:31:17.819Z,19.65
2017-08-20T11:32:27.108Z,19.65
2017-08-20T11:33:36.067Z,19.66
2017-08-20T11:34:45.036Z,19.66
2017-08-20T11:35:53.994Z,19.69
2017-08-20T11:37:02.957Z,19.68
2017-08-20T11:38:11.916Z,19.66
2017-08-20T11:39:21.529Z,19.69
2017-08-20T11:40:30.481Z,19.66
2017-08-20T11:41:39.438Z,19.66
2017-08-20T11:42:48.399Z,19.69
2017-08-20T11:43:57.448Z,19.74
2017-08-20T11:45:06.427Z,19.84
2017-08-20T11:46:15.390Z,20.02
2017-08-20T11:47:24.350Z,20.1
2017-08-20T11:48:33.308Z,20.11
2017-08-20T11:49:42.259Z,20.13
2017-08-20T11:50:51.215Z,20.16
2017-08-20T11:52:00.182Z,20.17
2017-08-20T11:53:09.134Z,20.18
2017-08-20T11:54:18.101Z,20.2
2017-08-20T11:55:27.065Z,20.14
2017-08-20T11:56:36.023Z,20.16
2017-08-20T11:57:45.302Z,20.21
2017-08-20T11:58:54.258Z,20.33
2017-08-20T12:00:03.220Z,20.32
2017-08-20T12:01:12.188Z,20.48
2017-08-20T12:02:21.150Z,20.52
2017-08-20T12:03:30.103Z,20.52
2017-08-20T12:04:39.098Z,20.59
2017-08-20T12:05:48.052Z,20.64
2017-08-20T12:06:57.012Z,20.64
2017-08-20T12:08:06.298Z,20.61
2017-08-20T12:09:15.259Z,20.7
2017-08-20T12:10:24.215Z,20.76
2017-08-20T12:11:33.184Z,20.82
2017-08-20T12:12:42.142Z,20.82
2017-08-20T12:13:51.103Z,20.82
2017-08-20T12:15:00.411Z,20.84
2017-08-20T12:16:09.373Z,20.84
2017-08-20T12:17:18.329Z,20.91
2017-08-20T12:18:27.295Z,21.01
2017-08-20T12:19:36.264Z,21.03
2017-08-20T12:20:45.556Z,21.07
2017-08-20T12:21:54.522Z,21.14
2017-08-20T12:23:03.479Z,21.17
2017-08-20T12:24:12.435Z,21.28
2017-08-20T12:25:21.400Z,21.25
2017-08-20T12:26:30.357Z,21.25
2017-08-20T12:27:39.315Z,21.29
2017-08-20T12:28:48.280Z,21.24
2017-08-20T12:29:57.238Z,21.27
2017-08-20T12:31:06.228Z,21.16
2017-08-20T12:32:15.196Z,21.17
2017-08-20T12:33:24.156Z,21.21
2017-08-20T12:34:35.220Z,21.12
2017-08-20T12:35:44.186Z,21.1
2017-08-20T12:36:53.160Z,21.13
2017-08-20T12:38:02.544Z,21.17
2017-08-20T12:39:11.886Z,21.14
2017-08-20T12:40:20.957Z,21.07
2017-08-20T12:41:29.970Z,21.14
2017-08-20T12:42:39.286Z,21.19
2017-08-20T12:43:48.250Z,21.24
2017-08-20T12:44:57.248Z,21.19
2017-08-20T12:46:07.694Z,21.38
2017-08-20T12:47:17.270Z,21.4
2017-08-20T12:48:27.522Z,21.46
2017-08-20T12:49:37.017Z,21.53
2017-08-20T12:50:47.516Z,21.59
2017-08-20T12:52:01.468Z,21.61
2017-08-20T12:53:15.913Z,21.62
2017-08-20T12:54:25.276Z,21.56
2017-08-20T12:55:34.830Z,21.58
2017-08-20T12:56:44.117Z,21.56
2017-08-20T12:57:53.507Z,21.52
2017-08-20T12:59:02.907Z,21.5
2017-08-20T13:00:12.291Z,21.65
2017-08-20T13:01:21.398Z,21.59
2017-08-20T13:02:31.286Z,21.61
2017-08-20T13:03:40.517Z,21.69
2017-08-20T13:04:49.488Z,21.77
2017-08-20T13:05:58.654Z,21.8
2017-08-20T13:07:08.775Z,21.8
2017-08-20T13:08:17.928Z,21.82
2017-08-20T13:09:26.887Z,21.8
2017-08-20T13:10:35.874Z,21.8
2017-08-20T13:11:44.831Z,21.83
2017-08-20T13:12:53.796Z,21.82
2017-08-20T13:14:02.758Z,21.79
2017-08-20T13:15:12.037Z,21.91
2017-08-20T13:16:20.996Z,21.86
2017-08-20T13:17:29.970Z,21.82
2017-08-20T13:18:38.924Z,21.8
2017-08-20T13:19:47.886Z,21.83
2017-08-20T13:20:56.845Z,21.83
2017-08-20T13:22:05.797Z,21.86
2017-08-20T13:23:14.755Z,21.88
2017-08-20T13:24:23.714Z,21.84
2017-08-20T13:25:32.672Z,21.86
2017-08-20T13:26:41.632Z,21.88
2017-08-20T13:27:50.912Z,21.86
2017-08-20T13:28:59.962Z,21.88
2017-08-20T13:30:08.926Z,21.82
2017-08-20T13:31:17.890Z,21.92
2017-08-20T13:32:27.184Z,21.9
2017-08-20T13:33:36.148Z,21.83
2017-08-20T13:34:45.140Z,21.91
2017-08-20T13:35:54.107Z,21.99
2017-08-20T13:37:03.066Z,22.05
2017-08-20T13:38:12.156Z,22.06
2017-08-20T13:39:21.195Z,21.96
2017-08-20T13:40:30.159Z,22.15
2017-08-20T13:41:39.285Z,22.21
2017-08-20T13:42:48.293Z,22.12
2017-08-20T13:43:57.254Z,22.18
2017-08-20T13:45:06.532Z,22.12
2017-08-20T13:46:15.552Z,22.1
2017-08-20T13:47:24.511Z,22.2
2017-08-20T13:48:33.889Z,22.09
2017-08-20T13:49:42.898Z,22
2017-08-20T13:50:51.860Z,22
2017-08-20T13:52:00.922Z,22.03
2017-08-20T13:53:10.599Z,22.06
2017-08-20T13:54:19.574Z,21.99
2017-08-20T13:55:28.537Z,22
2017-08-20T13:56:37.496Z,22.07
2017-08-20T13:57:46.458Z,22.12
2017-08-20T13:58:55.733Z,22.17
2017-08-20T14:00:04.989Z,22.17
2017-08-20T14:01:13.985Z,22.22
2017-08-20T14:02:23.068Z,22.27
2017-08-20T14:03:32.062Z,22.22
2017-08-20T14:04:41.065Z,22.24
2017-08-20T14:05:50.048Z,22.25
2017-08-20T14:06:59.049Z,22.25
2017-08-20T14:08:08.359Z,22.31
2017-08-20T14:09:17.752Z,22.37
2017-08-20T14:10:26.913Z,22.36
2017-08-20T14:11:36.231Z,22.39
2017-08-20T14:12:45.362Z,22.42
2017-08-20T14:13:54.440Z,22.36
2017-08-20T14:15:03.540Z,22.33
2017-08-20T14:16:12.543Z,22.3
2017-08-20T14:17:21.507Z,22.39
2017-08-20T14:18:30.561Z,22.22
2017-08-20T14:19:39.716Z,22.28
2017-08-20T14:20:48.872Z,22.31
2017-08-20T14:21:57.851Z,22.33
2017-08-20T14:23:06.808Z,22.36
2017-08-20T14:24:15.772Z,22.39
2017-08-20T14:25:24.731Z,22.42
2017-08-20T14:26:34.727Z,22.45
2017-08-20T14:27:44.343Z,22.35
2017-08-20T14:28:53.303Z,22.4
2017-08-20T14:30:02.281Z,22.24
2017-08-20T14:31:11.251Z,22.18
2017-08-20T14:32:20.280Z,22.12
2017-08-20T14:33:29.585Z,22.15
2017-08-20T14:34:38.605Z,22.02
2017-08-20T14:35:47.569Z,21.83
2017-08-20T14:36:56.530Z,21.86
2017-08-20T14:38:05.491Z,21.88
2017-08-20T14:39:14.454Z,21.88
2017-08-20T14:40:23.424Z,21.8
2017-08-20T14:41:32.394Z,21.8
2017-08-20T14:42:41.360Z,21.72
2017-08-20T14:43:50.325Z,21.64
2017-08-20T14:44:59.611Z,21.59
2017-08-20T14:46:08.573Z,21.58
2017-08-20T14:47:17.537Z,21.4
2017-08-20T14:48:26.515Z,21.4
2017-08-20T14:49:35.478Z,21.34
2017-08-20T14:50:44.445Z,21.32
2017-08-20T14:51:53.405Z,21.31